Time;durP1;ratioP1;P1;durP2;ratioP2;P2;SDS_P1;SDS_P2;PMS_P1;PMS_P2;Temp;Humidity;BMP_temperature;BMP_pressure;BME280_temperature;BME280_humidity;BME280_pressure;Samples;Min_cycle;Max_cycle;Signal;HPM_P1;HPM_P2
2023/12/27 00:00:53;;;;;;;10.73;4.73;;;3.90;99.90;;;;;;5059521;28;20184;-87
2023/12/27 00:03:19;;;;;;;11.60;3.87;;;3.80;99.90;;;;;;5059924;28;20656;-88
2023/12/27 00:05:44;;;;;;;9.90;3.47;;;3.80;99.90;;;;;;5060018;28;20296;-88
2023/12/27 00:08:10;;;;;;;9.23;3.07;;;3.90;99.90;;;;;;5059648;28;20188;-88
2023/12/27 00:10:36;;;;;;;11.50;3.27;;;3.90;99.90;;;;;;5060357;28;20169;-88
2023/12/27 00:13:01;;;;;;;7.50;2.30;;;3.90;99.90;;;;;;5059761;28;20177;-88
2023/12/27 00:15:27;;;;;;;8.70;2.77;;;3.90;99.90;;;;;;5059254;28;20196;-88
2023/12/27 00:17:55;;;;;;;10.47;3.37;;;3.90;99.90;;;;;;5059125;28;20235;-88
2023/12/27 00:20:21;;;;;;;9.73;2.80;;;3.80;99.90;;;;;;5059214;28;20288;-88
2023/12/27 00:22:47;;;;;;;10.70;4.10;;;3.90;99.90;;;;;;5059414;28;20264;-88
2023/12/27 00:25:13;;;;;;;10.70;3.63;;;3.90;99.90;;;;;;5059798;28;20208;-88
2023/12/27 00:27:39;;;;;;;7.73;3.40;;;4.00;99.90;;;;;;5059176;28;20158;-88
2023/12/27 00:30:05;;;;;;;6.03;3.00;;;4.10;99.90;;;;;;5059277;28;20205;-88
2023/12/27 00:32:34;;;;;;;7.33;2.67;;;4.10;99.90;;;;;;5059090;28;20672;-87
2023/12/27 00:35:00;;;;;;;7.20;2.60;;;4.00;99.90;;;;;;5058774;28;20174;-88
2023/12/27 00:37:25;;;;;;;4.60;2.70;;;4.10;99.90;;;;;;5059983;28;20177;-87
2023/12/27 00:39:51;;;;;;;8.50;3.10;;;3.90;99.90;;;;;;5059102;28;20219;-88
2023/12/27 00:42:17;;;;;;;11.47;3.47;;;3.80;99.90;;;;;;5059135;28;20181;-87
2023/12/27 00:44:42;;;;;;;12.97;3.93;;;3.80;99.90;;;;;;5059426;28;20675;-87
2023/12/27 00:47:08;;;;;;;6.40;3.03;;;3.70;99.90;;;;;;5059533;28;20184;-88
2023/12/27 00:49:34;;;;;;;9.83;3.23;;;3.60;99.90;;;;;;5058616;28;20198;-87
2023/12/27 00:51:59;;;;;;;8.23;2.63;;;3.70;99.90;;;;;;5058829;28;20182;-87
2023/12/27 00:54:25;;;;;;;7.97;2.63;;;3.60;99.90;;;;;;5058603;28;20207;-87
2023/12/27 00:56:50;;;;;;;7.83;2.90;;;3.60;99.90;;;;;;5058597;28;20232;-87
2023/12/27 00:59:16;;;;;;;6.23;2.40;;;3.60;99.90;;;;;;5058947;28;20201;-87
2023/12/27 01:01:43;;;;;;;6.43;2.70;;;3.70;99.90;;;;;;5058478;28;20199;-87
2023/12/27 01:04:09;;;;;;;6.53;3.07;;;3.80;99.90;;;;;;5058117;28;20204;-87
2023/12/27 01:06:35;;;;;;;7.53;2.90;;;3.90;99.90;;;;;;5059212;28;20181;-87
2023/12/27 01:09:01;;;;;;;8.73;2.43;;;3.90;99.90;;;;;;5058387;28;20198;-88
2023/12/27 01:11:27;;;;;;;6.20;2.97;;;3.90;99.90;;;;;;5058818;28;20178;-87
2023/12/27 01:13:53;;;;;;;9.47;2.80;;;3.80;99.90;;;;;;5058120;28;20209;-87
2023/12/27 01:16:19;;;;;;;7.70;2.87;;;3.80;99.90;;;;;;5057975;28;20220;-87
2023/12/27 01:18:44;;;;;;;9.80;2.60;;;3.80;99.90;;;;;;5058099;28;20213;-86
2023/12/27 01:21:12;;;;;;;7.03;2.93;;;3.60;99.90;;;;;;5057882;28;20186;-87
2023/12/27 01:23:38;;;;;;;9.03;2.90;;;3.70;99.90;;;;;;5058168;28;20292;-87
2023/12/27 01:26:04;;;;;;;8.27;2.83;;;3.80;99.90;;;;;;5058235;28;20292;-87
2023/12/27 01:28:29;;;;;;;7.67;2.73;;;3.80;99.90;;;;;;5057995;28;20225;-87
2023/12/27 01:30:55;;;;;;;10.37;2.73;;;4.00;99.90;;;;;;5057948;28;20174;-87
2023/12/27 01:33:20;;;;;;;8.80;2.53;;;4.00;99.90;;;;;;5057537;28;20170;-87
2023/12/27 01:35:46;;;;;;;5.90;2.37;;;4.10;99.90;;;;;;5058696;28;20598;-87
2023/12/27 01:38:12;;;;;;;7.30;2.30;;;4.10;99.90;;;;;;5058563;28;20178;-87
2023/12/27 01:40:37;;;;;;;8.10;3.20;;;4.10;99.90;;;;;;5058368;28;20177;-87
2023/12/27 01:43:03;;;;;;;6.20;2.70;;;4.10;99.90;;;;;;5057746;28;20643;-87
2023/12/27 01:45:29;;;;;;;11.77;2.70;;;4.20;99.90;;;;;;5057411;28;20197;-87
2023/12/27 01:47:55;;;;;;;6.47;2.67;;;4.30;99.90;;;;;;5057229;28;20180;-87
2023/12/27 01:50:21;;;;;;;9.23;2.97;;;4.30;99.90;;;;;;5057626;28;20194;-87
2023/12/27 01:52:47;;;;;;;7.70;2.80;;;4.20;99.90;;;;;;5057139;28;20169;-87
2023/12/27 01:55:13;;;;;;;6.50;2.97;;;4.10;99.90;;;;;;5058086;28;20245;-87
2023/12/27 01:57:39;;;;;;;10.90;2.73;;;4.00;99.90;;;;;;5057267;28;20181;-87
2023/12/27 02:00:09;;;;;;;7.30;2.80;;;4.00;99.90;;;;;;5057299;28;20328;-87
2023/12/27 02:20:04;;;;;;;6.70;2.50;;;3.80;99.90;;;;;;5026554;23;20691;-84
2023/12/27 02:22:31;;;;;;;7.97;2.80;;;3.70;99.90;;;;;;4939368;29;20276;-84
2023/12/27 02:24:57;;;;;;;8.60;3.10;;;3.70;99.90;;;;;;4940106;29;20214;-84
2023/12/27 02:27:23;;;;;;;9.30;2.80;;;3.60;99.90;;;;;;4939668;29;20231;-84
2023/12/27 02:29:49;;;;;;;5.50;2.60;;;3.70;99.90;;;;;;4956714;29;20205;-84
2023/12/27 02:32:14;;;;;;;7.00;2.50;;;3.70;99.90;;;;;;4939005;29;20268;-84
2023/12/27 02:34:40;;;;;;;6.23;2.40;;;3.80;99.90;;;;;;4939377;29;20181;-87
2023/12/27 02:37:15;;;;;;;10.27;2.60;;;3.70;99.90;;;;;;4939280;29;20172;-87
2023/12/27 02:39:43;;;;;;;10.87;2.80;;;3.70;99.90;;;;;;4940226;29;20205;-86
2023/12/27 02:42:09;;;;;;;8.97;2.80;;;3.70;99.90;;;;;;4939893;29;20192;-86
2023/12/27 02:44:34;;;;;;;5.97;2.43;;;3.60;99.90;;;;;;4939703;29;20206;-86
2023/12/27 02:47:01;;;;;;;9.40;2.70;;;3.60;99.90;;;;;;4939206;29;20177;-86
2023/12/27 02:49:27;;;;;;;9.57;2.97;;;3.60;99.90;;;;;;4938771;29;20288;-86
2023/12/27 02:51:52;;;;;;;9.00;2.77;;;3.50;99.90;;;;;;4939523;29;20204;-86
2023/12/27 02:54:18;;;;;;;8.43;3.47;;;3.50;99.90;;;;;;4939282;29;20174;-86
2023/12/27 02:56:44;;;;;;;10.33;3.03;;;3.60;99.90;;;;;;4938806;29;20229;-86
2023/12/27 02:59:09;;;;;;;11.23;3.30;;;3.70;99.90;;;;;;4939109;29;20213;-86
2023/12/27 03:01:35;;;;;;;7.30;2.57;;;3.60;99.90;;;;;;4939103;29;20185;-86
2023/12/27 03:04:01;;;;;;;7.30;2.37;;;3.70;99.90;;;;;;4938877;29;20236;-86
2023/12/27 03:06:27;;;;;;;6.67;2.40;;;3.70;99.90;;;;;;4938606;29;20209;-86
2023/12/27 03:08:53;;;;;;;5.30;2.70;;;3.70;99.90;;;;;;4938950;29;20753;-86
2023/12/27 03:11:19;;;;;;;9.50;2.60;;;3.60;99.90;;;;;;4939407;29;20182;-86
2023/12/27 03:13:45;;;;;;;7.43;3.47;;;3.70;99.90;;;;;;4938631;29;20177;-86
2023/12/27 03:16:11;;;;;;;7.83;2.43;;;3.70;99.90;;;;;;4938721;29;20666;-86
2023/12/27 03:18:38;;;;;;;8.10;2.13;;;3.70;99.90;;;;;;4938301;29;20220;-86
2023/12/27 03:21:04;;;;;;;7.07;2.67;;;3.80;99.90;;;;;;4938690;29;20185;-86
2023/12/27 03:23:30;;;;;;;8.40;3.20;;;3.90;99.90;;;;;;4938284;29;20273;-86
2023/12/27 03:25:55;;;;;;;11.17;3.97;;;3.90;99.90;;;;;;4938461;29;20647;-86
2023/12/27 03:28:22;;;;;;;12.00;3.90;;;3.80;99.90;;;;;;4938453;29;20204;-86
2023/12/27 03:30:48;;;;;;;10.10;3.20;;;3.60;99.90;;;;;;4938313;29;20181;-86
2023/12/27 03:33:13;;;;;;;9.87;3.20;;;3.40;99.90;;;;;;4938628;29;20233;-86
2023/12/27 03:35:39;;;;;;;10.70;3.23;;;3.30;99.90;;;;;;4938161;29;20220;-86
2023/12/27 03:38:05;;;;;;;9.67;3.27;;;3.40;99.90;;;;;;4938818;29;20201;-86
2023/12/27 03:40:30;;;;;;;10.80;3.70;;;3.40;99.90;;;;;;4938030;29;20181;-86
2023/12/27 03:42:56;;;;;;;11.13;3.80;;;3.40;99.90;;;;;;4939015;29;20264;-86
2023/12/27 03:45:21;;;;;;;10.00;3.63;;;3.40;99.90;;;;;;4937934;29;20231;-86
2023/12/27 03:47:47;;;;;;;10.70;3.90;;;3.60;99.90;;;;;;4938254;29;20181;-86
2023/12/27 03:50:13;;;;;;;10.63;3.60;;;3.70;99.90;;;;;;4938037;29;20232;-86
2023/12/27 03:52:38;;;;;;;5.83;2.90;;;3.80;99.90;;;;;;4938118;29;20212;-86
2023/12/27 03:55:05;;;;;;;6.77;3.20;;;3.80;99.90;;;;;;4937941;29;20189;-86
2023/12/27 03:57:30;;;;;;;8.20;3.10;;;3.90;99.90;;;;;;4937972;29;20236;-86
2023/12/27 03:59:56;;;;;;;8.40;3.70;;;3.90;99.90;;;;;;4937843;29;20209;-86
2023/12/27 04:02:21;;;;;;;6.87;3.47;;;3.90;99.90;;;;;;4938301;29;20189;-86
2023/12/27 04:04:47;;;;;;;8.83;3.67;;;3.90;99.90;;;;;;4937989;29;20217;-86
2023/12/27 04:07:13;;;;;;;13.50;4.10;;;3.90;99.90;;;;;;4937780;29;20229;-86
2023/12/27 04:09:39;;;;;;;11.47;3.67;;;3.80;99.90;;;;;;4938556;29;20236;-86
2023/12/27 04:12:08;;;;;;;8.93;3.10;;;3.70;99.90;;;;;;4938920;29;20209;-86
2023/12/27 04:14:34;;;;;;;9.83;3.53;;;3.70;99.90;;;;;;4938602;29;20189;-86
2023/12/27 04:16:59;;;;;;;6.73;3.13;;;3.70;99.90;;;;;;4938911;29;20189;-86
2023/12/27 04:19:25;;;;;;;11.30;5.10;;;3.40;99.90;;;;;;4938460;29;20217;-86
2023/12/27 04:21:51;;;;;;;15.13;6.60;;;3.40;99.90;;;;;;4938490;29;20193;-86
2023/12/27 04:24:16;;;;;;;13.33;7.07;;;3.30;99.90;;;;;;4938652;29;20176;-86
2023/12/27 04:26:42;;;;;;;9.73;5.30;;;3.30;99.90;;;;;;4938476;29;20229;-87
2023/12/27 04:29:08;;;;;;;15.73;6.47;;;3.20;99.90;;;;;;4938030;29;20216;-86
2023/12/27 04:31:36;;;;;;;12.17;7.73;;;3.10;99.90;;;;;;4955452;29;20174;-86
2023/12/27 04:34:02;;;;;;;12.13;5.70;;;3.10;99.90;;;;;;4937523;29;20182;-87
2023/12/27 04:36:27;;;;;;;8.97;4.37;;;3.10;99.90;;;;;;4938318;29;20255;-87
2023/12/27 04:38:53;;;;;;;9.63;3.67;;;2.90;99.90;;;;;;4937780;29;20210;-87
2023/12/27 04:41:18;;;;;;;7.83;3.53;;;2.90;99.90;;;;;;4940122;29;20189;-87
2023/12/27 04:43:44;;;;;;;6.53;3.37;;;2.80;99.90;;;;;;4942099;29;20181;-87
2023/12/27 04:46:10;;;;;;;7.47;4.17;;;2.90;99.90;;;;;;4941189;29;20209;-87
2023/12/27 04:48:36;;;;;;;8.20;3.77;;;2.80;99.90;;;;;;4942116;29;20715;-87
2023/12/27 04:51:02;;;;;;;10.50;4.23;;;2.80;99.90;;;;;;4941090;29;20216;-87
2023/12/27 04:53:27;;;;;;;9.60;4.87;;;2.80;99.90;;;;;;4941408;29;20247;-87
2023/12/27 04:55:53;;;;;;;7.43;4.70;;;2.80;99.90;;;;;;4940987;29;20181;-87
2023/12/27 04:58:18;;;;;;;9.17;4.57;;;2.80;99.90;;;;;;4958002;29;20205;-87
2023/12/27 05:00:44;;;;;;;9.50;3.27;;;2.70;99.90;;;;;;4940818;29;20217;-87
2023/12/27 05:03:09;;;;;;;8.37;3.50;;;2.70;99.90;;;;;;4941312;29;20192;-87
2023/12/27 05:05:35;;;;;;;6.47;3.00;;;2.60;99.90;;;;;;4940711;29;20332;-86
2023/12/27 05:08:01;;;;;;;6.97;3.77;;;2.50;99.90;;;;;;4940690;29;20193;-86
2023/12/27 05:10:26;;;;;;;11.93;3.20;;;2.60;99.90;;;;;;4940576;29;20193;-86
2023/12/27 05:12:53;;;;;;;8.93;4.10;;;2.50;99.90;;;;;;4940576;29;20236;-86
2023/12/27 05:15:19;;;;;;;15.73;7.80;;;2.50;99.90;;;;;;4940927;29;20190;-86
2023/12/27 05:17:45;;;;;;;14.23;7.30;;;2.50;99.90;;;;;;4941281;29;20192;-86
2023/12/27 05:20:11;;;;;;;12.73;6.43;;;2.40;99.90;;;;;;4940754;29;20201;-86
2023/12/27 05:22:39;;;;;;;10.60;5.40;;;2.30;99.90;;;;;;4940850;29;20189;-86
2023/12/27 05:25:08;;;;;;;10.43;4.47;;;2.40;99.90;;;;;;4940338;29;20208;-86
2023/12/27 05:27:34;;;;;;;11.13;4.10;;;2.50;99.90;;;;;;4940325;29;20209;-86
2023/12/27 05:30:00;;;;;;;8.23;4.13;;;2.50;99.90;;;;;;4940574;29;20229;-86
2023/12/27 05:32:25;;;;;;;7.53;4.13;;;2.50;99.90;;;;;;4940577;29;20225;-86
2023/12/27 05:34:54;;;;;;;7.47;4.10;;;2.60;99.90;;;;;;4940619;29;20188;-86
2023/12/27 05:37:20;;;;;;;8.53;4.10;;;2.60;99.90;;;;;;4941215;29;20213;-86
2023/12/27 05:39:46;;;;;;;7.70;3.60;;;2.60;99.90;;;;;;4940492;29;20244;-86
2023/12/27 05:42:14;;;;;;;5.87;3.53;;;2.60;99.90;;;;;;4940883;29;20253;-86
2023/12/27 05:44:40;;;;;;;11.83;3.30;;;2.60;99.90;;;;;;4940075;29;20202;-86
2023/12/27 05:47:06;;;;;;;7.77;3.47;;;2.60;99.90;;;;;;4939980;29;20178;-86
2023/12/27 05:49:31;;;;;;;10.47;3.50;;;2.60;99.90;;;;;;4940289;29;20201;-86
2023/12/27 05:51:57;;;;;;;9.73;3.60;;;2.50;99.90;;;;;;4939415;29;20182;-86
2023/12/27 05:54:23;;;;;;;9.90;3.53;;;2.50;99.90;;;;;;4940064;29;20269;-86
2023/12/27 05:56:49;;;;;;;10.67;4.63;;;2.30;99.90;;;;;;4939808;29;20177;-86
2023/12/27 05:59:15;;;;;;;14.33;4.50;;;2.30;99.90;;;;;;4939688;29;20707;-86
2023/12/27 06:01:52;;;;;;;11.87;6.67;;;2.20;99.90;;;;;;4939777;29;20178;-86
2023/12/27 06:04:19;;;;;;;8.93;4.00;;;2.00;99.90;;;;;;4939654;29;20173;-86
2023/12/27 06:06:44;;;;;;;6.30;3.33;;;2.00;99.90;;;;;;4940333;29;20174;-86
2023/12/27 06:09:10;;;;;;;8.30;4.03;;;2.00;99.90;;;;;;4939962;29;20214;-86
2023/12/27 06:11:37;;;;;;;7.73;3.60;;;2.00;99.90;;;;;;4939577;29;20178;-86
2023/12/27 06:14:03;;;;;;;5.13;2.60;;;2.10;99.90;;;;;;4939478;29;20174;-86
2023/12/27 06:16:29;;;;;;;6.90;3.53;;;2.20;99.90;;;;;;4939593;29;20181;-86
2023/12/27 06:18:56;;;;;;;7.60;3.53;;;2.30;99.90;;;;;;4939462;29;20231;-86
2023/12/27 06:21:22;;;;;;;13.13;6.17;;;2.30;99.90;;;;;;4939447;29;20185;-86
2023/12/27 06:23:47;;;;;;;13.47;7.80;;;2.30;99.90;;;;;;4956482;29;20196;-86
2023/12/27 06:26:13;;;;;;;9.87;6.17;;;2.30;99.90;;;;;;4939521;29;20212;-86
2023/12/27 06:28:42;;;;;;;9.47;4.80;;;2.50;99.90;;;;;;4939022;29;20207;-86
2023/12/27 06:31:08;;;;;;;8.20;4.77;;;2.60;99.90;;;;;;4940013;29;20181;-86
2023/12/27 06:33:34;;;;;;;9.50;4.87;;;2.70;99.90;;;;;;4939122;29;20209;-86
2023/12/27 06:36:00;;;;;;;17.37;9.60;;;2.80;99.90;;;;;;4939329;29;20189;-86
2023/12/27 06:38:26;;;;;;;10.57;7.10;;;2.50;99.90;;;;;;4939145;29;20242;-86
2023/12/27 06:40:52;;;;;;;6.70;4.50;;;2.70;99.90;;;;;;4938964;29;20186;-86
2023/12/27 06:43:17;;;;;;;5.33;3.23;;;2.70;99.90;;;;;;4939488;29;20186;-86
2023/12/27 06:45:43;;;;;;;8.90;3.70;;;2.70;99.90;;;;;;4939234;29;20206;-87
2023/12/27 06:48:08;;;;;;;5.33;2.97;;;2.70;99.90;;;;;;4956344;29;20193;-87
2023/12/27 06:50:34;;;;;;;6.20;2.70;;;2.70;99.90;;;;;;4939152;29;20174;-87
2023/12/27 06:53:00;;;;;;;5.30;3.00;;;2.50;99.90;;;;;;4955893;29;20174;-87
2023/12/27 06:55:25;;;;;;;6.70;3.03;;;2.40;99.90;;;;;;4938828;29;20266;-87
2023/12/27 06:57:51;;;;;;;8.20;3.60;;;2.30;99.90;;;;;;4938658;29;20185;-87
2023/12/27 07:00:17;;;;;;;11.90;3.40;;;2.30;99.90;;;;;;4938870;29;20297;-87
2023/12/27 07:02:42;;;;;;;6.57;3.30;;;2.30;99.90;;;;;;4939652;28;20234;-86
2023/12/27 07:05:08;;;;;;;8.00;3.37;;;2.30;99.90;;;;;;4938866;29;20240;-86
2023/12/27 07:07:34;;;;;;;8.60;4.20;;;2.40;99.90;;;;;;4938720;29;20200;-86
2023/12/27 07:10:01;;;;;;;8.47;3.27;;;2.50;99.90;;;;;;4938447;29;20197;-86
2023/12/27 07:12:27;;;;;;;8.77;3.40;;;2.60;99.90;;;;;;4955726;29;20181;-86
2023/12/27 07:14:53;;;;;;;5.43;3.30;;;2.60;99.90;;;;;;4938592;29;20204;-86
2023/12/27 07:17:20;;;;;;;10.10;3.50;;;2.70;99.90;;;;;;4939588;29;20181;-86
2023/12/27 07:19:46;;;;;;;5.93;3.70;;;2.80;99.90;;;;;;4938132;29;20221;-86
2023/12/27 07:22:12;;;;;;;6.83;4.27;;;2.70;99.90;;;;;;4938391;29;20236;-86
2023/12/27 07:24:37;;;;;;;7.40;3.80;;;2.60;99.90;;;;;;4938408;29;22113;-86
2023/12/27 07:27:03;;;;;;;6.70;3.90;;;2.60;99.90;;;;;;4938236;29;20182;-86
2023/12/27 07:29:29;;;;;;;6.87;4.00;;;2.60;99.90;;;;;;4938253;29;20317;-86
2023/12/27 07:31:55;;;;;;;7.97;3.90;;;2.60;99.90;;;;;;4938225;29;20186;-86
2023/12/27 07:34:21;;;;;;;6.60;3.80;;;2.60;99.90;;;;;;4938250;29;20178;-88
2023/12/27 07:36:48;;;;;;;9.97;4.63;;;2.80;99.90;;;;;;4938197;29;20177;-87
2023/12/27 07:39:15;;;;;;;11.27;5.03;;;2.90;99.90;;;;;;4938076;29;20217;-87
2023/12/27 07:41:42;;;;;;;9.37;5.10;;;3.00;99.90;;;;;;4938320;29;20589;-87
2023/12/27 07:44:08;;;;;;;9.03;4.63;;;3.10;99.90;;;;;;4938061;29;20630;-87
2023/12/27 07:46:34;;;;;;;10.83;4.20;;;3.20;99.90;;;;;;4937990;29;20201;-87
2023/12/27 07:49:01;;;;;;;8.50;4.47;;;3.10;99.90;;;;;;4954988;29;20189;-87
2023/12/27 07:51:27;;;;;;;10.10;4.53;;;3.10;99.90;;;;;;4937984;29;20188;-87
2023/12/27 07:53:54;;;;;;;7.43;4.10;;;3.20;99.90;;;;;;4939169;29;20268;-87
2023/12/27 07:56:19;;;;;;;8.53;3.80;;;3.30;99.90;;;;;;4938213;29;20181;-87
2023/12/27 07:58:48;;;;;;;8.03;4.03;;;3.40;99.90;;;;;;4938057;29;20207;-87
2023/12/27 08:01:14;;;;;;;8.97;4.00;;;3.50;99.90;;;;;;4937926;29;20205;-87
2023/12/27 08:03:40;;;;;;;10.53;4.93;;;3.50;99.90;;;;;;4938626;29;20197;-87
2023/12/27 08:06:06;;;;;;;15.63;6.47;;;3.50;99.90;;;;;;4938742;29;20198;-87
2023/12/27 08:08:35;;;;;;;12.07;5.17;;;3.60;99.90;;;;;;4937787;29;20418;-87
2023/12/27 08:11:04;;;;;;;13.43;5.97;;;3.60;99.90;;;;;;4937957;29;20182;-87
2023/12/27 08:13:34;;;;;;;15.10;5.80;;;3.70;99.90;;;;;;4937835;29;20181;-87
2023/12/27 08:16:00;;;;;;;24.80;7.03;;;3.80;99.90;;;;;;4939897;29;20220;-87
2023/12/27 08:18:25;;;;;;;23.20;6.93;;;3.80;99.90;;;;;;4941534;29;20563;-87
2023/12/27 08:20:51;;;;;;;48.60;7.77;;;3.80;99.90;;;;;;4941652;29;20188;-87
2023/12/27 08:23:17;;;;;;;72.67;9.00;;;3.80;99.90;;;;;;4941831;29;20192;-87
2023/12/27 08:25:44;;;;;;;31.73;11.40;;;3.80;99.90;;;;;;4941570;29;20268;-87
2023/12/27 08:28:10;;;;;;;41.90;9.73;;;3.90;99.90;;;;;;4941674;29;20202;-87
2023/12/27 08:30:36;;;;;;;124.53;18.17;;;3.90;99.90;;;;;;4958588;29;20178;-87
2023/12/27 08:33:06;;;;;;;35.47;14.23;;;3.90;99.90;;;;;;4942472;29;20177;-87
2023/12/27 08:35:35;;;;;;;41.57;14.17;;;4.00;99.90;;;;;;4958874;29;20181;-87
2023/12/27 08:38:01;;;;;;;31.70;13.47;;;4.10;99.90;;;;;;4941272;29;20240;-87
2023/12/27 08:40:27;;;;;;;130.83;15.23;;;4.20;99.90;;;;;;4941342;29;20185;-87
2023/12/27 08:42:53;;;;;;;56.57;13.33;;;4.10;99.90;;;;;;4942109;29;20188;-87
2023/12/27 08:45:19;;;;;;;50.80;13.07;;;4.10;99.90;;;;;;4941610;29;20202;-87
2023/12/27 08:47:45;;;;;;;68.63;13.53;;;4.20;99.90;;;;;;4941569;29;20193;-87
2023/12/27 08:50:11;;;;;;;45.70;12.67;;;4.20;99.90;;;;;;4941086;29;20651;-87
2023/12/27 08:52:38;;;;;;;52.53;12.97;;;4.40;99.90;;;;;;4941156;29;20209;-87
2023/12/27 08:55:05;;;;;;;47.50;10.80;;;4.40;99.90;;;;;;4941022;29;20186;-86
2023/12/27 08:57:32;;;;;;;52.03;8.73;;;4.50;99.90;;;;;;4941644;29;20276;-86
2023/12/27 08:59:58;;;;;;;25.90;6.43;;;4.50;99.90;;;;;;4940800;29;20197;-87
2023/12/27 09:02:23;;;;;;;37.30;7.87;;;4.50;99.90;;;;;;4940942;29;20174;-88
2023/12/27 09:04:50;;;;;;;25.60;7.13;;;4.60;99.90;;;;;;4941194;29;20202;-88
2023/12/27 09:07:16;;;;;;;31.23;7.67;;;4.60;99.90;;;;;;4941700;29;20687;-88
2023/12/27 09:09:42;;;;;;;35.90;10.70;;;4.70;99.90;;;;;;4940688;29;20237;-88
2023/12/27 09:12:08;;;;;;;85.63;11.80;;;4.70;99.90;;;;;;4940844;29;20166;-88
2023/12/27 09:14:34;;;;;;;46.63;9.80;;;4.60;99.90;;;;;;4940641;29;20280;-88
2023/12/27 09:16:59;;;;;;;46.73;9.17;;;4.60;99.90;;;;;;4941056;29;20185;-88
2023/12/27 09:19:25;;;;;;;96.77;36.47;;;4.50;99.90;;;;;;4940572;29;20303;-87
2023/12/27 09:21:51;;;;;;;91.90;20.53;;;4.60;99.90;;;;;;4941317;29;20318;-88
2023/12/27 09:24:17;;;;;;;114.07;49.47;;;4.50;99.90;;;;;;4940811;29;20203;-88
2023/12/27 09:26:42;;;;;;;45.57;16.90;;;4.50;99.90;;;;;;4940560;29;20209;-88
2023/12/27 09:29:11;;;;;;;47.00;13.53;;;4.50;99.90;;;;;;4940442;29;20229;-88
2023/12/27 09:31:36;;;;;;;30.43;10.60;;;4.60;99.90;;;;;;4940729;29;20189;-88
2023/12/27 09:34:02;;;;;;;27.90;10.77;;;4.60;99.90;;;;;;4940355;29;20182;-88
2023/12/27 09:36:28;;;;;;;22.30;11.40;;;4.80;99.90;;;;;;4940450;29;20185;-88
2023/12/27 09:38:54;;;;;;;27.97;11.77;;;4.80;99.90;;;;;;4940686;29;20240;-88
2023/12/27 09:41:20;;;;;;;21.13;10.80;;;5.00;99.90;;;;;;4940156;29;20188;-88
2023/12/27 09:43:47;;;;;;;22.97;10.57;;;5.10;99.90;;;;;;4940328;29;20185;-87
2023/12/27 09:46:18;;;;;;;22.10;11.87;;;5.20;99.90;;;;;;4939981;29;20623;-87
2023/12/27 09:48:45;;;;;;;22.53;11.77;;;5.30;99.90;;;;;;4940292;29;20205;-87
2023/12/27 09:51:13;;;;;;;21.87;12.07;;;5.20;99.90;;;;;;4939958;29;20181;-87
2023/12/27 09:53:44;;;;;;;25.77;14.03;;;5.30;99.90;;;;;;4940068;29;20185;-87
2023/12/27 09:56:10;;;;;;;22.98;13.10;;;5.30;99.90;;;;;;4957476;29;20169;-88
2023/12/27 09:58:36;;;;;;;21.10;11.63;;;5.40;99.90;;;;;;4940129;29;20210;-88
2023/12/27 10:01:03;;;;;;;25.63;13.33;;;5.40;99.90;;;;;;4939746;29;20268;-87
2023/12/27 10:03:37;;;;;;;22.53;12.87;;;5.60;99.90;;;;;;4939855;29;20193;-87
2023/12/27 10:06:41;;;;;;;22.63;15.80;;;5.70;99.90;;;;;;4940402;29;20251;-87
2023/12/27 10:09:08;;;;;;;20.02;11.60;;;5.80;99.90;;;;;;4920031;29;20244;-88
2023/12/27 10:11:34;;;;;;;23.08;12.75;;;5.90;99.90;;;;;;4939936;29;20190;-88
2023/12/27 10:14:00;;;;;;;22.58;12.20;;;5.90;99.90;;;;;;4939597;29;20186;-88
2023/12/27 10:16:26;;;;;;;20.58;11.85;;;5.80;99.90;;;;;;4939514;29;20193;-88
2023/12/27 10:18:52;;;;;;;22.27;12.13;;;5.80;99.90;;;;;;4939528;29;20221;-88
2023/12/27 10:21:18;;;;;;;24.45;12.57;;;5.80;99.90;;;;;;4939575;29;20177;-87
2023/12/27 10:23:44;;;;;;;22.17;13.00;;;5.70;99.90;;;;;;4940274;29;20303;-87
2023/12/27 10:26:10;;;;;;;28.47;13.53;;;5.60;99.90;;;;;;4939624;29;20197;-88
2023/12/27 10:28:35;;;;;;;27.03;12.53;;;5.50;99.90;;;;;;4939959;29;20193;-88
2023/12/27 10:31:05;;;;;;;22.57;11.80;;;5.40;99.90;;;;;;4939524;29;20174;-88
2023/12/27 10:33:40;;;;;;;30.37;12.60;;;5.50;99.90;;;;;;4940158;29;20268;-87
2023/12/27 10:36:08;;;;;;;29.40;11.03;;;5.50;99.90;;;;;;4939294;29;20260;-88
2023/12/27 10:38:34;;;;;;;25.67;11.47;;;5.40;99.90;;;;;;4938866;29;20264;-88
2023/12/27 10:41:03;;;;;;;26.00;10.80;;;5.40;99.90;;;;;;4939184;29;20583;-88
2023/12/27 10:43:31;;;;;;;28.10;11.47;;;5.40;99.90;;;;;;4939143;29;20189;-88
2023/12/27 10:45:58;;;;;;;23.27;10.90;;;5.50;99.90;;;;;;4938975;29;20205;-87
2023/12/27 10:48:26;;;;;;;29.03;11.20;;;5.60;99.90;;;;;;4939621;29;20200;-87
2023/12/27 10:50:52;;;;;;;21.40;11.80;;;5.70;99.90;;;;;;4939418;29;20197;-88
2023/12/27 10:53:24;;;;;;;20.40;11.00;;;5.60;99.90;;;;;;4939549;29;20236;-87
2023/12/27 10:55:51;;;;;;;27.47;11.00;;;5.70;99.90;;;;;;4939197;29;20205;-87
2023/12/27 10:58:24;;;;;;;25.40;10.20;;;5.80;99.90;;;;;;4939786;29;20253;-87
2023/12/27 11:00:50;;;;;;;22.35;9.60;;;6.00;99.90;;;;;;4939051;29;20174;-87
2023/12/27 11:03:18;;;;;;;24.27;10.68;;;6.20;99.90;;;;;;4939363;29;20177;-87
2023/12/27 11:05:45;;;;;;;21.60;12.77;;;6.20;99.90;;;;;;4939300;29;20284;-87
2023/12/27 11:08:13;;;;;;;18.00;9.43;;;6.30;99.90;;;;;;4939226;29;20205;-87
2023/12/27 11:10:39;;;;;;;23.08;12.70;;;6.30;99.90;;;;;;4939766;29;20207;-87
2023/12/27 11:13:09;;;;;;;19.20;9.48;;;6.30;99.90;;;;;;4939624;29;20641;-87
2023/12/27 11:15:39;;;;;;;16.35;10.00;;;6.40;99.90;;;;;;4938637;29;20174;-87
2023/12/27 11:18:09;;;;;;;17.17;9.32;;;6.40;99.90;;;;;;4938519;28;20243;-87
2023/12/27 11:20:36;;;;;;;15.20;9.73;;;6.40;99.90;;;;;;4938471;29;20604;-87
2023/12/27 11:23:03;;;;;;;23.42;10.88;;;6.30;99.90;;;;;;4938419;29;20181;-87
2023/12/27 11:25:29;;;;;;;19.08;9.43;;;6.30;99.90;;;;;;4938411;29;20209;-87
2023/12/27 11:27:55;;;;;;;17.30;9.40;;;6.30;99.90;;;;;;4938288;29;20174;-87
2023/12/27 11:30:23;;;;;;;23.52;10.88;;;6.30;99.90;;;;;;4922865;29;20221;-87
2023/12/27 11:32:49;;;;;;;21.00;11.60;;;6.30;99.90;;;;;;4938649;29;20190;-87
2023/12/27 11:35:25;;;;;;;23.23;10.25;;;6.30;99.90;;;;;;4938643;29;20185;-87
2023/12/27 11:37:53;;;;;;;15.73;9.82;;;6.40;99.90;;;;;;4939223;29;20185;-87
2023/12/27 11:40:35;;;;;;;17.38;9.68;;;6.40;99.90;;;;;;4939293;29;20430;-87
2023/12/27 11:43:03;;;;;;;20.60;10.90;;;6.60;99.90;;;;;;4939230;29;20547;-87
2023/12/27 11:45:56;;;;;;;24.80;19.70;;;6.60;99.90;;;;;;4938087;29;20209;-87
2023/12/27 11:48:21;;;;;;;19.52;14.10;;;6.70;99.90;;;;;;4938111;29;20201;-87
2023/12/27 11:50:47;;;;;;;14.32;9.88;;;6.70;99.90;;;;;;4937495;29;20177;-87
2023/12/27 11:53:14;;;;;;;14.43;10.40;;;6.80;99.90;;;;;;4938125;29;20254;-87
2023/12/27 11:55:41;;;;;;;17.58;12.07;;;6.90;99.90;;;;;;4938166;29;20679;-87
2023/12/27 11:58:08;;;;;;;13.25;9.30;;;6.90;99.90;;;;;;4938205;29;20201;-87
2023/12/27 12:00:35;;;;;;;13.02;9.90;;;7.00;99.90;;;;;;4938057;29;20240;-87
2023/12/27 12:03:05;;;;;;;13.57;9.80;;;6.90;99.90;;;;;;4938787;29;20177;-87
2023/12/27 12:05:42;;;;;;;14.27;9.68;;;6.90;99.90;;;;;;4938068;29;20309;-87
2023/12/27 12:08:44;;;;;;;14.30;11.25;;;7.00;99.90;;;;;;4938721;29;20201;-87
2023/12/27 12:11:12;;;;;;;25.17;20.52;;;7.10;99.90;;;;;;4937971;29;20649;-87
2023/12/27 12:13:39;;;;;;;14.13;10.73;;;7.10;99.90;;;;;;4937910;29;20178;-87
2023/12/27 12:16:06;;;;;;;11.95;10.40;;;7.00;99.90;;;;;;4938630;29;20181;-87
2023/12/27 12:18:34;;;;;;;44.22;39.05;;;7.00;99.90;;;;;;4937561;29;20221;-87
2023/12/27 12:21:00;;;;;;;30.20;23.65;;;6.90;99.90;;;;;;4938101;29;20185;-87
2023/12/27 12:23:32;;;;;;;16.60;12.48;;;6.90;99.90;;;;;;4937983;29;20189;-87
2023/12/27 12:26:02;;;;;;;22.25;15.15;;;6.80;99.90;;;;;;4937797;29;20193;-87
2023/12/27 12:28:28;;;;;;;18.45;12.15;;;6.90;99.90;;;;;;4937624;29;20208;-87
2023/12/27 12:31:02;;;;;;;16.80;10.93;;;6.90;99.90;;;;;;4938459;29;20189;-87
2023/12/27 12:33:28;;;;;;;19.73;13.13;;;6.90;99.90;;;;;;4937956;29;20205;-87
2023/12/27 12:35:57;;;;;;;17.75;12.57;;;7.10;99.90;;;;;;4937942;29;20205;-87
2023/12/27 12:38:23;;;;;;;19.10;12.95;;;7.20;99.90;;;;;;4954759;29;20280;-87
2023/12/27 12:40:49;;;;;;;20.75;13.55;;;7.20;99.90;;;;;;4939079;29;20212;-87
2023/12/27 12:43:19;;;;;;;22.38;15.43;;;7.20;99.90;;;;;;4937544;29;20185;-87
2023/12/27 12:45:46;;;;;;;21.88;17.08;;;7.10;99.90;;;;;;4937503;29;20719;-87
2023/12/27 12:48:12;;;;;;;19.38;14.38;;;7.10;99.90;;;;;;4937657;29;20209;-87
2023/12/27 12:50:37;;;;;;;15.70;11.38;;;7.00;99.90;;;;;;4937641;29;20181;-87
2023/12/27 12:53:20;;;;;;;21.45;16.08;;;6.90;99.90;;;;;;4938230;29;20170;-87
2023/12/27 12:55:47;;;;;;;24.90;19.13;;;6.90;99.90;;;;;;4938722;29;20174;-87
2023/12/27 12:58:15;;;;;;;25.75;16.25;;;6.90;99.90;;;;;;4938007;29;20716;-87
2023/12/27 13:00:41;;;;;;;23.17;16.50;;;6.70;99.90;;;;;;4937625;28;20564;-87
2023/12/27 13:03:10;;;;;;;19.27;12.50;;;6.70;99.90;;;;;;4941258;29;20211;-86